sensor_id;sensor_type;location;lat;lon;timestamp;P1;durP1;ratioP1;P2;durP2;ratioP2
18013;SDS011;9132;47.946;10.394;2022-10-31T00:00:23;9.10;;;4.03;;
18013;SDS011;9132;47.946;10.394;2022-10-31T00:02:49;8.50;;;3.87;;
18013;SDS011;9132;47.946;10.394;2022-10-31T00:05:16;9.07;;;4.10;;
18013;SDS011;9132;47.946;10.394;2022-10-31T00:07:43;9.03;;;4.07;;
18013;SDS011;9132;47.946;10.394;2022-10-31T00:10:10;8.57;;;4.03;;
18013;SDS011;9132;47.946;10.394;2022-10-31T00:12:36;6.93;;;3.67;;
18013;SDS011;9132;47.946;10.394;2022-10-31T00:15:02;7.83;;;4.60;;
18013;SDS011;9132;47.946;10.394;2022-10-31T00:17:29;6.30;;;3.33;;
18013;SDS011;9132;47.946;10.394;2022-10-31T00:19:55;7.27;;;3.23;;
18013;SDS011;9132;47.946;10.394;2022-10-31T00:22:21;7.93;;;3.50;;
18013;SDS011;9132;47.946;10.394;2022-10-31T00:24:49;7.70;;;3.53;;
18013;SDS011;9132;47.946;10.394;2022-10-31T00:27:15;8.83;;;3.67;;
18013;SDS011;9132;47.946;10.394;2022-10-31T00:29:42;9.40;;;3.70;;
18013;SDS011;9132;47.946;10.394;2022-10-31T00:32:08;9.87;;;4.90;;
18013;SDS011;9132;47.946;10.394;2022-10-31T00:34:34;7.30;;;3.40;;
18013;SDS011;9132;47.946;10.394;2022-10-31T00:37:01;6.73;;;3.33;;
18013;SDS011;9132;47.946;10.394;2022-10-31T00:39:27;8.13;;;4.03;;
18013;SDS011;9132;47.946;10.394;2022-10-31T00:41:55;9.10;;;3.60;;
18013;SDS011;9132;47.946;10.394;2022-10-31T00:44:21;5.37;;;3.33;;
18013;SDS011;9132;47.946;10.394;2022-10-31T00:46:47;8.33;;;3.50;;
18013;SDS011;9132;47.946;10.394;2022-10-31T00:49:14;8.30;;;3.60;;
18013;SDS011;9132;47.946;10.394;2022-10-31T00:51:40;8.17;;;3.57;;
18013;SDS011;9132;47.946;10.394;2022-10-31T00:54:06;8.17;;;3.93;;
18013;SDS011;9132;47.946;10.394;2022-10-31T00:56:33;10.40;;;3.70;;
18013;SDS011;9132;47.946;10.394;2022-10-31T00:59:00;6.00;;;3.80;;
18013;SDS011;9132;47.946;10.394;2022-10-31T01:01:27;11.57;;;3.90;;
18013;SDS011;9132;47.946;10.394;2022-10-31T01:03:53;9.00;;;4.00;;
18013;SDS011;9132;47.946;10.394;2022-10-31T01:06:19;8.77;;;3.70;;
18013;SDS011;9132;47.946;10.394;2022-10-31T01:08:46;7.47;;;3.60;;
18013;SDS011;9132;47.946;10.394;2022-10-31T01:11:13;3.20;;;2.90;;
18013;SDS011;9132;47.946;10.394;2022-10-31T01:13:40;9.10;;;3.47;;
18013;SDS011;9132;47.946;10.394;2022-10-31T01:16:10;6.20;;;3.40;;
18013;SDS011;9132;47.946;10.394;2022-10-31T01:18:36;6.93;;;3.47;;
18013;SDS011;9132;47.946;10.394;2022-10-31T01:21:03;6.97;;;2.97;;
18013;SDS011;9132;47.946;10.394;2022-10-31T01:23:30;9.87;;;3.90;;
18013;SDS011;9132;47.946;10.394;2022-10-31T01:26:01;7.03;;;3.53;;
18013;SDS011;9132;47.946;10.394;2022-10-31T01:28:27;7.77;;;3.67;;
18013;SDS011;9132;47.946;10.394;2022-10-31T01:30:54;11.80;;;3.77;;
18013;SDS011;9132;47.946;10.394;2022-10-31T01:33:21;8.13;;;3.53;;
18013;SDS011;9132;47.946;10.394;2022-10-31T01:35:48;6.37;;;3.37;;
18013;SDS011;9132;47.946;10.394;2022-10-31T01:38:14;7.70;;;3.60;;
18013;SDS011;9132;47.946;10.394;2022-10-31T01:40:40;9.67;;;3.47;;
18013;SDS011;9132;47.946;10.394;2022-10-31T01:43:08;7.20;;;3.30;;
18013;SDS011;9132;47.946;10.394;2022-10-31T01:45:35;7.43;;;3.20;;
18013;SDS011;9132;47.946;10.394;2022-10-31T01:48:01;7.93;;;3.40;;
18013;SDS011;9132;47.946;10.394;2022-10-31T01:50:30;9.03;;;3.50;;
18013;SDS011;9132;47.946;10.394;2022-10-31T01:52:57;8.13;;;3.30;;
18013;SDS011;9132;47.946;10.394;2022-10-31T01:55:26;6.63;;;3.53;;
18013;SDS011;9132;47.946;10.394;2022-10-31T01:57:55;7.73;;;3.07;;
18013;SDS011;9132;47.946;10.394;2022-10-31T02:00:23;9.53;;;3.63;;
18013;SDS011;9132;47.946;10.394;2022-10-31T02:02:49;8.37;;;3.97;;
18013;SDS011;9132;47.946;10.394;2022-10-31T02:05:16;8.50;;;3.70;;
18013;SDS011;9132;47.946;10.394;2022-10-31T02:07:45;7.90;;;3.43;;
18013;SDS011;9132;47.946;10.394;2022-10-31T02:10:14;8.10;;;3.40;;
18013;SDS011;9132;47.946;10.394;2022-10-31T02:12:41;8.67;;;3.57;;
18013;SDS011;9132;47.946;10.394;2022-10-31T02:15:08;7.17;;;3.33;;
18013;SDS011;9132;47.946;10.394;2022-10-31T02:17:34;10.50;;;3.90;;
18013;SDS011;9132;47.946;10.394;2022-10-31T02:20:05;7.70;;;3.67;;
18013;SDS011;9132;47.946;10.394;2022-10-31T02:22:35;6.80;;;3.60;;
18013;SDS011;9132;47.946;10.394;2022-10-31T02:25:11;7.97;;;3.40;;
18013;SDS011;9132;47.946;10.394;2022-10-31T02:27:43;6.90;;;3.73;;
18013;SDS011;9132;47.946;10.394;2022-10-31T02:30:16;6.57;;;3.53;;
18013;SDS011;9132;47.946;10.394;2022-10-31T02:32:51;5.20;;;3.27;;
18013;SDS011;9132;47.946;10.394;2022-10-31T02:35:25;6.13;;;3.13;;
18013;SDS011;9132;47.946;10.394;2022-10-31T02:37:54;6.07;;;3.10;;
18013;SDS011;9132;47.946;10.394;2022-10-31T02:40:24;10.40;;;3.90;;
18013;SDS011;9132;47.946;10.394;2022-10-31T02:42:54;5.57;;;3.40;;
18013;SDS011;9132;47.946;10.394;2022-10-31T02:45:23;9.07;;;3.70;;
18013;SDS011;9132;47.946;10.394;2022-10-31T02:47:52;7.33;;;3.30;;
18013;SDS011;9132;47.946;10.394;2022-10-31T02:50:21;5.97;;;3.17;;
18013;SDS011;9132;47.946;10.394;2022-10-31T02:52:49;6.83;;;3.40;;
18013;SDS011;9132;47.946;10.394;2022-10-31T02:57:58;6.97;;;3.37;;
18013;SDS011;9132;47.946;10.394;2022-10-31T03:00:26;6.80;;;3.87;;
18013;SDS011;9132;47.946;10.394;2022-10-31T03:02:56;10.00;;;3.60;;
18013;SDS011;9132;47.946;10.394;2022-10-31T03:05:32;4.50;;;3.40;;
18013;SDS011;9132;47.946;10.394;2022-10-31T03:08:02;7.93;;;3.37;;
18013;SDS011;9132;47.946;10.394;2022-10-31T03:10:35;8.43;;;3.73;;
18013;SDS011;9132;47.946;10.394;2022-10-31T03:13:03;7.70;;;3.43;;
18013;SDS011;9132;47.946;10.394;2022-10-31T03:15:32;7.47;;;3.13;;
18013;SDS011;9132;47.946;10.394;2022-10-31T03:18:02;7.20;;;3.50;;
18013;SDS011;9132;47.946;10.394;2022-10-31T03:20:31;7.53;;;3.80;;
18013;SDS011;9132;47.946;10.394;2022-10-31T03:22:59;7.07;;;3.40;;
18013;SDS011;9132;47.946;10.394;2022-10-31T03:25:27;6.40;;;3.47;;
18013;SDS011;9132;47.946;10.394;2022-10-31T03:27:53;7.37;;;3.30;;
18013;SDS011;9132;47.946;10.394;2022-10-31T03:30:21;8.83;;;3.77;;
18013;SDS011;9132;47.946;10.394;2022-10-31T03:32:47;9.87;;;3.20;;
18013;SDS011;9132;47.946;10.394;2022-10-31T03:35:17;6.23;;;3.87;;
18013;SDS011;9132;47.946;10.394;2022-10-31T03:37:44;11.70;;;3.83;;
18013;SDS011;9132;47.946;10.394;2022-10-31T03:40:11;9.97;;;3.33;;
18013;SDS011;9132;47.946;10.394;2022-10-31T03:42:40;5.87;;;2.97;;
18013;SDS011;9132;47.946;10.394;2022-10-31T03:45:08;10.13;;;3.23;;
18013;SDS011;9132;47.946;10.394;2022-10-31T03:47:37;7.50;;;3.10;;
18013;SDS011;9132;47.946;10.394;2022-10-31T03:50:04;6.57;;;3.37;;
18013;SDS011;9132;47.946;10.394;2022-10-31T03:52:33;9.03;;;3.23;;
18013;SDS011;9132;47.946;10.394;2022-10-31T03:55:03;10.23;;;3.57;;
18013;SDS011;9132;47.946;10.394;2022-10-31T03:57:32;8.33;;;3.60;;
18013;SDS011;9132;47.946;10.394;2022-10-31T04:00:03;8.67;;;3.60;;
18013;SDS011;9132;47.946;10.394;2022-10-31T04:02:30;8.10;;;3.67;;
18013;SDS011;9132;47.946;10.394;2022-10-31T04:04:57;8.20;;;3.57;;
18013;SDS011;9132;47.946;10.394;2022-10-31T04:07:25;8.33;;;3.30;;
18013;SDS011;9132;47.946;10.394;2022-10-31T04:09:54;5.43;;;3.23;;
18013;SDS011;9132;47.946;10.394;2022-10-31T04:12:22;9.63;;;3.47;;
18013;SDS011;9132;47.946;10.394;2022-10-31T04:14:50;8.37;;;3.40;;
18013;SDS011;9132;47.946;10.394;2022-10-31T04:17:17;7.40;;;3.47;;
18013;SDS011;9132;47.946;10.394;2022-10-31T04:19:44;11.53;;;3.47;;
18013;SDS011;9132;47.946;10.394;2022-10-31T04:22:11;9.03;;;3.57;;
18013;SDS011;9132;47.946;10.394;2022-10-31T04:24:37;6.53;;;2.90;;
18013;SDS011;9132;47.946;10.394;2022-10-31T04:27:05;7.67;;;2.97;;
18013;SDS011;9132;47.946;10.394;2022-10-31T04:29:31;6.07;;;2.93;;
18013;SDS011;9132;47.946;10.394;2022-10-31T04:31:58;11.57;;;3.27;;
18013;SDS011;9132;47.946;10.394;2022-10-31T04:34:24;9.83;;;3.23;;
18013;SDS011;9132;47.946;10.394;2022-10-31T04:36:50;5.97;;;3.13;;
18013;SDS011;9132;47.946;10.394;2022-10-31T04:39:17;4.77;;;2.70;;
18013;SDS011;9132;47.946;10.394;2022-10-31T04:41:43;6.97;;;2.63;;
18013;SDS011;9132;47.946;10.394;2022-10-31T04:44:11;7.70;;;3.03;;
18013;SDS011;9132;47.946;10.394;2022-10-31T04:46:37;6.57;;;2.63;;
18013;SDS011;9132;47.946;10.394;2022-10-31T04:49:03;7.13;;;3.17;;
18013;SDS011;9132;47.946;10.394;2022-10-31T04:51:30;8.00;;;2.80;;
18013;SDS011;9132;47.946;10.394;2022-10-31T04:53:56;8.33;;;2.47;;
18013;SDS011;9132;47.946;10.394;2022-10-31T04:56:22;6.67;;;3.10;;
18013;SDS011;9132;47.946;10.394;2022-10-31T04:58:49;8.10;;;3.27;;
18013;SDS011;9132;47.946;10.394;2022-10-31T05:01:16;7.87;;;2.77;;
18013;SDS011;9132;47.946;10.394;2022-10-31T05:03:43;9.67;;;2.63;;
18013;SDS011;9132;47.946;10.394;2022-10-31T05:06:09;5.63;;;3.13;;
18013;SDS011;9132;47.946;10.394;2022-10-31T05:08:35;7.17;;;3.03;;
18013;SDS011;9132;47.946;10.394;2022-10-31T05:11:02;4.63;;;2.50;;
18013;SDS011;9132;47.946;10.394;2022-10-31T05:13:28;7.63;;;2.97;;
18013;SDS011;9132;47.946;10.394;2022-10-31T05:15:55;5.07;;;2.90;;
18013;SDS011;9132;47.946;10.394;2022-10-31T05:18:23;7.87;;;2.80;;
18013;SDS011;9132;47.946;10.394;2022-10-31T05:20:49;7.13;;;2.63;;
18013;SDS011;9132;47.946;10.394;2022-10-31T05:23:15;7.73;;;2.70;;
18013;SDS011;9132;47.946;10.394;2022-10-31T05:25:42;8.97;;;2.67;;
18013;SDS011;9132;47.946;10.394;2022-10-31T05:28:08;7.10;;;2.83;;
18013;SDS011;9132;47.946;10.394;2022-10-31T05:30:34;10.83;;;2.97;;
18013;SDS011;9132;47.946;10.394;2022-10-31T05:33:01;9.30;;;2.90;;
18013;SDS011;9132;47.946;10.394;2022-10-31T05:35:29;7.97;;;2.73;;
18013;SDS011;9132;47.946;10.394;2022-10-31T05:37:56;4.43;;;2.50;;
18013;SDS011;9132;47.946;10.394;2022-10-31T05:40:22;6.73;;;2.80;;
18013;SDS011;9132;47.946;10.394;2022-10-31T05:42:50;5.90;;;3.10;;
18013;SDS011;9132;47.946;10.394;2022-10-31T05:45:17;9.00;;;3.23;;
18013;SDS011;9132;47.946;10.394;2022-10-31T05:47:49;7.83;;;2.97;;
18013;SDS011;9132;47.946;10.394;2022-10-31T05:50:15;7.40;;;3.20;;
18013;SDS011;9132;47.946;10.394;2022-10-31T05:52:43;10.53;;;3.20;;
18013;SDS011;9132;47.946;10.394;2022-10-31T05:55:09;11.70;;;3.20;;
18013;SDS011;9132;47.946;10.394;2022-10-31T05:57:36;4.97;;;2.83;;
18013;SDS011;9132;47.946;10.394;2022-10-31T06:00:03;6.57;;;2.90;;
18013;SDS011;9132;47.946;10.394;2022-10-31T06:02:29;9.53;;;3.30;;
18013;SDS011;9132;47.946;10.394;2022-10-31T06:04:59;8.63;;;3.13;;
18013;SDS011;9132;47.946;10.394;2022-10-31T06:07:25;4.63;;;2.57;;
18013;SDS011;9132;47.946;10.394;2022-10-31T06:09:53;6.63;;;2.80;;
18013;SDS011;9132;47.946;10.394;2022-10-31T06:12:19;6.63;;;3.07;;
18013;SDS011;9132;47.946;10.394;2022-10-31T06:14:46;3.97;;;2.43;;
18013;SDS011;9132;47.946;10.394;2022-10-31T06:17:12;5.00;;;2.63;;
18013;SDS011;9132;47.946;10.394;2022-10-31T06:19:38;6.97;;;3.17;;
18013;SDS011;9132;47.946;10.394;2022-10-31T06:22:05;5.83;;;2.70;;
18013;SDS011;9132;47.946;10.394;2022-10-31T06:24:31;4.03;;;2.70;;
18013;SDS011;9132;47.946;10.394;2022-10-31T06:26:59;7.23;;;2.47;;
18013;SDS011;9132;47.946;10.394;2022-10-31T06:29:25;5.67;;;2.70;;
18013;SDS011;9132;47.946;10.394;2022-10-31T06:31:51;5.63;;;2.40;;
18013;SDS011;9132;47.946;10.394;2022-10-31T06:34:18;4.97;;;2.40;;
18013;SDS011;9132;47.946;10.394;2022-10-31T06:36:45;8.27;;;2.60;;
18013;SDS011;9132;47.946;10.394;2022-10-31T06:39:11;6.60;;;3.00;;
18013;SDS011;9132;47.946;10.394;2022-10-31T06:41:38;7.17;;;3.10;;
18013;SDS011;9132;47.946;10.394;2022-10-31T06:44:06;6.23;;;3.00;;
18013;SDS011;9132;47.946;10.394;2022-10-31T06:46:32;6.90;;;2.60;;
18013;SDS011;9132;47.946;10.394;2022-10-31T06:48:59;4.93;;;2.67;;
18013;SDS011;9132;47.946;10.394;2022-10-31T06:51:25;6.87;;;2.50;;
18013;SDS011;9132;47.946;10.394;2022-10-31T06:53:52;7.37;;;2.57;;
18013;SDS011;9132;47.946;10.394;2022-10-31T06:56:18;6.40;;;2.70;;
18013;SDS011;9132;47.946;10.394;2022-10-31T06:58:44;5.10;;;2.13;;
18013;SDS011;9132;47.946;10.394;2022-10-31T07:01:12;3.83;;;2.23;;
18013;SDS011;9132;47.946;10.394;2022-10-31T07:03:38;5.73;;;1.93;;
18013;SDS011;9132;47.946;10.394;2022-10-31T07:06:05;6.40;;;2.30;;
18013;SDS011;9132;47.946;10.394;2022-10-31T07:08:31;9.77;;;3.07;;
18013;SDS011;9132;47.946;10.394;2022-10-31T07:10:57;4.30;;;2.07;;
18013;SDS011;9132;47.946;10.394;2022-10-31T07:13:24;7.70;;;2.40;;
18013;SDS011;9132;47.946;10.394;2022-10-31T07:15:51;10.67;;;3.03;;
18013;SDS011;9132;47.946;10.394;2022-10-31T07:18:19;8.50;;;3.23;;
18013;SDS011;9132;47.946;10.394;2022-10-31T07:20:46;9.93;;;3.33;;
18013;SDS011;9132;47.946;10.394;2022-10-31T07:23:12;9.23;;;2.93;;
18013;SDS011;9132;47.946;10.394;2022-10-31T07:25:39;7.60;;;2.80;;
18013;SDS011;9132;47.946;10.394;2022-10-31T07:28:05;8.37;;;2.73;;
18013;SDS011;9132;47.946;10.394;2022-10-31T07:30:32;6.60;;;2.63;;
18013;SDS011;9132;47.946;10.394;2022-10-31T07:32:58;5.93;;;2.97;;
18013;SDS011;9132;47.946;10.394;2022-10-31T07:35:27;10.10;;;3.10;;
18013;SDS011;9132;47.946;10.394;2022-10-31T07:37:54;9.10;;;2.90;;
18013;SDS011;9132;47.946;10.394;2022-10-31T07:40:21;6.77;;;3.00;;
18013;SDS011;9132;47.946;10.394;2022-10-31T07:42:48;6.23;;;2.77;;
18013;SDS011;9132;47.946;10.394;2022-10-31T07:45:15;9.37;;;2.63;;
18013;SDS011;9132;47.946;10.394;2022-10-31T07:47:41;5.67;;;2.47;;
18013;SDS011;9132;47.946;10.394;2022-10-31T07:50:09;7.73;;;2.40;;
18013;SDS011;9132;47.946;10.394;2022-10-31T07:52:37;7.20;;;2.80;;
18013;SDS011;9132;47.946;10.394;2022-10-31T07:55:03;7.53;;;2.40;;
18013;SDS011;9132;47.946;10.394;2022-10-31T07:57:30;7.10;;;2.40;;
18013;SDS011;9132;47.946;10.394;2022-10-31T07:59:56;6.27;;;2.67;;
18013;SDS011;9132;47.946;10.394;2022-10-31T08:02:22;6.43;;;2.07;;
18013;SDS011;9132;47.946;10.394;2022-10-31T08:04:49;5.77;;;2.40;;
18013;SDS011;9132;47.946;10.394;2022-10-31T08:07:15;5.43;;;2.10;;
18013;SDS011;9132;47.946;10.394;2022-10-31T08:09:43;9.70;;;2.60;;
18013;SDS011;9132;47.946;10.394;2022-10-31T08:12:09;8.53;;;2.90;;
18013;SDS011;9132;47.946;10.394;2022-10-31T08:14:36;5.67;;;2.70;;
18013;SDS011;9132;47.946;10.394;2022-10-31T08:17:03;3.00;;;2.30;;
18013;SDS011;9132;47.946;10.394;2022-10-31T08:19:29;7.80;;;2.70;;
18013;SDS011;9132;47.946;10.394;2022-10-31T08:21:56;7.50;;;2.40;;
18013;SDS011;9132;47.946;10.394;2022-10-31T08:24:23;4.33;;;2.47;;
18013;SDS011;9132;47.946;10.394;2022-10-31T08:26:51;6.13;;;2.50;;
18013;SDS011;9132;47.946;10.394;2022-10-31T08:29:17;5.87;;;2.77;;
18013;SDS011;9132;47.946;10.394;2022-10-31T08:31:44;6.43;;;2.60;;
18013;SDS011;9132;47.946;10.394;2022-10-31T08:34:10;6.57;;;2.60;;
18013;SDS011;9132;47.946;10.394;2022-10-31T08:36:36;6.03;;;2.30;;
18013;SDS011;9132;47.946;10.394;2022-10-31T08:39:03;5.30;;;2.90;;
18013;SDS011;9132;47.946;10.394;2022-10-31T08:41:29;6.27;;;2.63;;
18013;SDS011;9132;47.946;10.394;2022-10-31T08:43:57;7.63;;;3.03;;
18013;SDS011;9132;47.946;10.394;2022-10-31T08:46:23;6.43;;;2.70;;
18013;SDS011;9132;47.946;10.394;2022-10-31T08:48:50;5.37;;;2.47;;
18013;SDS011;9132;47.946;10.394;2022-10-31T08:51:16;2.90;;;2.20;;
18013;SDS011;9132;47.946;10.394;2022-10-31T08:53:42;5.00;;;2.97;;
18013;SDS011;9132;47.946;10.394;2022-10-31T08:56:09;8.23;;;3.20;;
18013;SDS011;9132;47.946;10.394;2022-10-31T08:58:35;6.97;;;3.10;;
18013;SDS011;9132;47.946;10.394;2022-10-31T09:01:03;11.85;;;3.90;;
18013;SDS011;9132;47.946;10.394;2022-10-31T09:03:29;5.63;;;3.00;;
18013;SDS011;9132;47.946;10.394;2022-10-31T09:05:57;15.70;;;4.80;;
18013;SDS011;9132;47.946;10.394;2022-10-31T09:08:24;23.27;;;8.73;;
18013;SDS011;9132;47.946;10.394;2022-10-31T09:10:50;23.60;;;7.05;;
18013;SDS011;9132;47.946;10.394;2022-10-31T09:13:18;11.98;;;5.00;;
18013;SDS011;9132;47.946;10.394;2022-10-31T09:15:45;7.97;;;3.05;;
18013;SDS011;9132;47.946;10.394;2022-10-31T09:18:14;4.90;;;2.10;;
18013;SDS011;9132;47.946;10.394;2022-10-31T09:20:41;7.00;;;2.65;;
18013;SDS011;9132;47.946;10.394;2022-10-31T09:23:08;9.25;;;3.33;;
18013;SDS011;9132;47.946;10.394;2022-10-31T09:25:35;9.23;;;2.80;;
18013;SDS011;9132;47.946;10.394;2022-10-31T09:28:02;5.93;;;2.75;;
18013;SDS011;9132;47.946;10.394;2022-10-31T09:30:30;7.32;;;3.15;;
18013;SDS011;9132;47.946;10.394;2022-10-31T09:32:57;7.28;;;2.55;;
18013;SDS011;9132;47.946;10.394;2022-10-31T09:35:25;6.47;;;2.20;;
18013;SDS011;9132;47.946;10.394;2022-10-31T09:37:55;5.30;;;1.95;;
18013;SDS011;9132;47.946;10.394;2022-10-31T09:40:22;5.35;;;1.67;;
18013;SDS011;9132;47.946;10.394;2022-10-31T09:42:53;11.93;;;4.00;;
18013;SDS011;9132;47.946;10.394;2022-10-31T09:45:23;11.57;;;3.88;;
18013;SDS011;9132;47.946;10.394;2022-10-31T09:47:56;18.00;;;6.05;;
18013;SDS011;9132;47.946;10.394;2022-10-31T09:50:36;8.52;;;3.00;;
18013;SDS011;9132;47.946;10.394;2022-10-31T09:53:05;7.82;;;2.50;;
18013;SDS011;9132;47.946;10.394;2022-10-31T09:55:35;8.18;;;3.13;;
18013;SDS011;9132;47.946;10.394;2022-10-31T09:58:02;10.30;;;2.92;;
18013;SDS011;9132;47.946;10.394;2022-10-31T10:00:29;8.98;;;3.50;;
18013;SDS011;9132;47.946;10.394;2022-10-31T10:02:57;18.52;;;6.32;;
18013;SDS011;9132;47.946;10.394;2022-10-31T10:05:28;5.45;;;3.10;;
18013;SDS011;9132;47.946;10.394;2022-10-31T10:07:59;7.80;;;2.90;;
18013;SDS011;9132;47.946;10.394;2022-10-31T10:10:29;4.00;;;2.67;;
18013;SDS011;9132;47.946;10.394;2022-10-31T10:13:02;10.10;;;2.92;;
18013;SDS011;9132;47.946;10.394;2022-10-31T10:15:34;6.78;;;2.70;;
18013;SDS011;9132;47.946;10.394;2022-10-31T10:18:03;8.43;;;2.80;;
18013;SDS011;9132;47.946;10.394;2022-10-31T10:20:34;6.13;;;2.85;;
18013;SDS011;9132;47.946;10.394;2022-10-31T10:23:08;8.82;;;2.67;;
18013;SDS011;9132;47.946;10.394;2022-10-31T10:25:38;8.05;;;2.63;;
18013;SDS011;9132;47.946;10.394;2022-10-31T10:28:08;12.40;;;3.22;;
18013;SDS011;9132;47.946;10.394;2022-10-31T10:30:38;10.05;;;3.53;;
18013;SDS011;9132;47.946;10.394;2022-10-31T10:33:08;26.25;;;8.70;;
18013;SDS011;9132;47.946;10.394;2022-10-31T10:35:38;26.48;;;10.35;;
18013;SDS011;9132;47.946;10.394;2022-10-31T10:38:09;33.85;;;10.68;;
18013;SDS011;9132;47.946;10.394;2022-10-31T10:40:36;27.48;;;10.00;;
18013;SDS011;9132;47.946;10.394;2022-10-31T10:43:10;14.13;;;5.93;;
18013;SDS011;9132;47.946;10.394;2022-10-31T10:45:49;19.85;;;7.00;;
18013;SDS011;9132;47.946;10.394;2022-10-31T10:48:37;15.80;;;4.90;;
18013;SDS011;9132;47.946;10.394;2022-10-31T10:51:10;7.28;;;3.03;;
18013;SDS011;9132;47.946;10.394;2022-10-31T10:53:41;8.27;;;3.70;;
18013;SDS011;9132;47.946;10.394;2022-10-31T10:56:27;8.75;;;3.15;;
18013;SDS011;9132;47.946;10.394;2022-10-31T10:58:56;21.42;;;3.97;;
18013;SDS011;9132;47.946;10.394;2022-10-31T11:01:23;12.18;;;3.60;;
18013;SDS011;9132;47.946;10.394;2022-10-31T11:03:50;7.88;;;3.40;;
18013;SDS011;9132;47.946;10.394;2022-10-31T11:06:18;8.05;;;3.08;;
18013;SDS011;9132;47.946;10.394;2022-10-31T11:08:47;7.57;;;3.40;;
18013;SDS011;9132;47.946;10.394;2022-10-31T11:11:17;8.23;;;3.50;;
18013;SDS011;9132;47.946;10.394;2022-10-31T11:13:46;7.63;;;3.92;;
18013;SDS011;9132;47.946;10.394;2022-10-31T11:16:13;13.52;;;3.70;;
18013;SDS011;9132;47.946;10.394;2022-10-31T11:18:41;11.15;;;3.35;;
18013;SDS011;9132;47.946;10.394;2022-10-31T11:21:19;7.57;;;3.78;;
18013;SDS011;9132;47.946;10.394;2022-10-31T11:23:46;10.38;;;3.47;;
18013;SDS011;9132;47.946;10.394;2022-10-31T11:26:20;9.85;;;3.00;;
18013;SDS011;9132;47.946;10.394;2022-10-31T11:28:55;7.05;;;2.75;;
18013;SDS011;9132;47.946;10.394;2022-10-31T11:31:22;8.50;;;3.05;;
18013;SDS011;9132;47.946;10.394;2022-10-31T11:33:49;8.82;;;3.20;;
18013;SDS011;9132;47.946;10.394;2022-10-31T11:36:18;9.10;;;3.08;;
18013;SDS011;9132;47.946;10.394;2022-10-31T11:38:47;7.65;;;2.90;;
18013;SDS011;9132;47.946;10.394;2022-10-31T11:41:14;6.97;;;3.08;;
18013;SDS011;9132;47.946;10.394;2022-10-31T11:43:45;10.73;;;2.85;;
18013;SDS011;9132;47.946;10.394;2022-10-31T11:46:15;7.15;;;2.95;;
18013;SDS011;9132;47.946;10.394;2022-10-31T11:48:46;9.23;;;3.58;;
18013;SDS011;9132;47.946;10.394;2022-10-31T11:51:13;6.55;;;3.15;;
18013;SDS011;9132;47.946;10.394;2022-10-31T11:53:50;10.48;;;3.22;;
18013;SDS011;9132;47.946;10.394;2022-10-31T11:56:17;7.50;;;3.30;;
18013;SDS011;9132;47.946;10.394;2022-10-31T11:58:43;8.80;;;3.20;;
18013;SDS011;9132;47.946;10.394;2022-10-31T12:01:23;7.35;;;3.30;;
18013;SDS011;9132;47.946;10.394;2022-10-31T12:03:53;8.45;;;3.63;;
18013;SDS011;9132;47.946;10.394;2022-10-31T12:06:21;8.43;;;3.78;;
18013;SDS011;9132;47.946;10.394;2022-10-31T12:08:50;10.57;;;3.50;;
18013;SDS011;9132;47.946;10.394;2022-10-31T12:11:22;8.77;;;3.50;;
18013;SDS011;9132;47.946;10.394;2022-10-31T12:13:52;7.95;;;3.33;;
18013;SDS011;9132;47.946;10.394;2022-10-31T12:16:25;10.38;;;3.05;;
18013;SDS011;9132;47.946;10.394;2022-10-31T12:18:58;8.05;;;3.55;;
18013;SDS011;9132;47.946;10.394;2022-10-31T12:21:29;8.88;;;4.03;;
18013;SDS011;9132;47.946;10.394;2022-10-31T12:24:04;7.65;;;3.58;;
18013;SDS011;9132;47.946;10.394;2022-10-31T12:26:34;8.07;;;3.22;;
18013;SDS011;9132;47.946;10.394;2022-10-31T12:29:12;8.88;;;3.03;;
18013;SDS011;9132;47.946;10.394;2022-10-31T12:31:44;7.32;;;4.13;;
18013;SDS011;9132;47.946;10.394;2022-10-31T12:36:59;9.63;;;3.38;;
18013;SDS011;9132;47.946;10.394;2022-10-31T12:39:32;7.38;;;3.25;;
18013;SDS011;9132;47.946;10.394;2022-10-31T12:42:02;13.90;;;4.05;;
18013;SDS011;9132;47.946;10.394;2022-10-31T12:44:43;7.22;;;3.53;;
18013;SDS011;9132;47.946;10.394;2022-10-31T12:47:18;6.70;;;3.28;;
18013;SDS011;9132;47.946;10.394;2022-10-31T12:49:49;7.55;;;3.70;;
18013;SDS011;9132;47.946;10.394;2022-10-31T12:52:24;8.13;;;4.40;;
18013;SDS011;9132;47.946;10.394;2022-10-31T12:55:00;9.07;;;4.25;;
18013;SDS011;9132;47.946;10.394;2022-10-31T12:57:30;10.35;;;3.80;;
18013;SDS011;9132;47.946;10.394;2022-10-31T13:00:02;11.73;;;4.63;;
18013;SDS011;9132;47.946;10.394;2022-10-31T13:02:30;11.38;;;3.60;;
18013;SDS011;9132;47.946;10.394;2022-10-31T13:04:58;10.90;;;4.50;;
18013;SDS011;9132;47.946;10.394;2022-10-31T13:07:28;6.88;;;3.70;;
18013;SDS011;9132;47.946;10.394;2022-10-31T13:09:56;7.68;;;3.88;;
18013;SDS011;9132;47.946;10.394;2022-10-31T13:12:26;12.18;;;4.22;;
18013;SDS011;9132;47.946;10.394;2022-10-31T13:14:54;8.20;;;3.67;;
18013;SDS011;9132;47.946;10.394;2022-10-31T13:17:22;13.10;;;4.70;;
18013;SDS011;9132;47.946;10.394;2022-10-31T13:19:50;11.18;;;4.55;;
18013;SDS011;9132;47.946;10.394;2022-10-31T13:22:20;12.00;;;4.88;;
18013;SDS011;9132;47.946;10.394;2022-10-31T13:24:50;9.25;;;4.03;;
18013;SDS011;9132;47.946;10.394;2022-10-31T13:27:20;13.15;;;4.63;;
18013;SDS011;9132;47.946;10.394;2022-10-31T13:29:52;10.27;;;4.28;;
18013;SDS011;9132;47.946;10.394;2022-10-31T13:32:19;7.68;;;4.55;;
18013;SDS011;9132;47.946;10.394;2022-10-31T13:34:46;12.73;;;4.60;;
18013;SDS011;9132;47.946;10.394;2022-10-31T13:37:15;8.63;;;4.55;;
18013;SDS011;9132;47.946;10.394;2022-10-31T13:39:49;7.90;;;4.50;;
18013;SDS011;9132;47.946;10.394;2022-10-31T13:42:20;12.20;;;4.72;;
18013;SDS011;9132;47.946;10.394;2022-10-31T13:44:49;11.32;;;4.43;;
18013;SDS011;9132;47.946;10.394;2022-10-31T13:47:25;11.55;;;5.10;;
18013;SDS011;9132;47.946;10.394;2022-10-31T13:49:51;11.70;;;5.10;;
18013;SDS011;9132;47.946;10.394;2022-10-31T13:52:28;14.57;;;5.05;;
18013;SDS011;9132;47.946;10.394;2022-10-31T13:54:55;14.52;;;4.95;;
18013;SDS011;9132;47.946;10.394;2022-10-31T13:57:23;9.57;;;4.50;;
18013;SDS011;9132;47.946;10.394;2022-10-31T13:59:53;13.98;;;5.50;;
18013;SDS011;9132;47.946;10.394;2022-10-31T14:02:24;64.10;;;8.80;;
18013;SDS011;9132;47.946;10.394;2022-10-31T14:04:51;35.13;;;7.22;;
18013;SDS011;9132;47.946;10.394;2022-10-31T14:07:18;13.55;;;6.03;;
18013;SDS011;9132;47.946;10.394;2022-10-31T14:09:50;13.80;;;5.40;;
18013;SDS011;9132;47.946;10.394;2022-10-31T14:12:22;10.68;;;4.75;;
18013;SDS011;9132;47.946;10.394;2022-10-31T14:14:50;10.45;;;5.18;;
18013;SDS011;9132;47.946;10.394;2022-10-31T14:17:20;8.82;;;5.18;;
18013;SDS011;9132;47.946;10.394;2022-10-31T14:20:00;10.43;;;4.95;;
18013;SDS011;9132;47.946;10.394;2022-10-31T14:22:31;14.10;;;5.35;;
18013;SDS011;9132;47.946;10.394;2022-10-31T14:24:58;8.05;;;4.65;;
18013;SDS011;9132;47.946;10.394;2022-10-31T14:27:32;11.38;;;4.75;;
18013;SDS011;9132;47.946;10.394;2022-10-31T14:30:07;11.30;;;4.97;;
18013;SDS011;9132;47.946;10.394;2022-10-31T14:32:35;20.20;;;5.93;;
18013;SDS011;9132;47.946;10.394;2022-10-31T14:35:02;12.43;;;4.85;;
18013;SDS011;9132;47.946;10.394;2022-10-31T14:37:32;11.07;;;4.72;;
18013;SDS011;9132;47.946;10.394;2022-10-31T14:45:34;9.40;;;4.72;;
18013;SDS011;9132;47.946;10.394;2022-10-31T14:48:09;11.23;;;4.57;;
18013;SDS011;9132;47.946;10.394;2022-10-31T14:50:40;8.60;;;4.30;;
18013;SDS011;9132;47.946;10.394;2022-10-31T14:53:09;8.38;;;4.28;;
18013;SDS011;9132;47.946;10.394;2022-10-31T14:55:38;8.52;;;3.97;;
18013;SDS011;9132;47.946;10.394;2022-10-31T14:58:06;14.18;;;4.35;;
18013;SDS011;9132;47.946;10.394;2022-10-31T15:00:33;8.40;;;4.68;;
18013;SDS011;9132;47.946;10.394;2022-10-31T15:03:04;7.82;;;4.10;;